sensor_id;sensor_type;location;lat;lon;timestamp;P1;durP1;ratioP1;P2;durP2;ratioP2
78614;SDS011;67937;52.488;20.952;2023-06-14T00:01:54;5.40;;;4.50;;
78614;SDS011;67937;52.488;20.952;2023-06-14T00:04:22;7.40;;;4.40;;
78614;SDS011;67937;52.488;20.952;2023-06-14T00:06:51;5.50;;;4.80;;
78614;SDS011;67937;52.488;20.952;2023-06-14T00:09:20;5.20;;;4.30;;
78614;SDS011;67937;52.488;20.952;2023-06-14T00:11:48;6.30;;;4.50;;
78614;SDS011;67937;52.488;20.952;2023-06-14T00:14:16;5.50;;;4.90;;
78614;SDS011;67937;52.488;20.952;2023-06-14T00:16:44;4.30;;;3.80;;
78614;SDS011;67937;52.488;20.952;2023-06-14T00:19:12;6.20;;;4.00;;
78614;SDS011;67937;52.488;20.952;2023-06-14T00:21:41;5.50;;;4.10;;
78614;SDS011;67937;52.488;20.952;2023-06-14T00:24:09;6.10;;;4.20;;
78614;SDS011;67937;52.488;20.952;2023-06-14T00:26:37;5.50;;;4.40;;
78614;SDS011;67937;52.488;20.952;2023-06-14T00:29:05;5.00;;;4.40;;
78614;SDS011;67937;52.488;20.952;2023-06-14T00:31:33;7.50;;;4.50;;
78614;SDS011;67937;52.488;20.952;2023-06-14T00:34:02;4.70;;;4.20;;
78614;SDS011;67937;52.488;20.952;2023-06-14T00:36:30;5.50;;;4.00;;
78614;SDS011;67937;52.488;20.952;2023-06-14T00:38:58;6.50;;;4.10;;
78614;SDS011;67937;52.488;20.952;2023-06-14T00:41:26;6.30;;;4.60;;
78614;SDS011;67937;52.488;20.952;2023-06-14T00:43:54;5.80;;;3.90;;
78614;SDS011;67937;52.488;20.952;2023-06-14T00:46:23;6.00;;;4.10;;
78614;SDS011;67937;52.488;20.952;2023-06-14T00:48:51;9.30;;;4.40;;
78614;SDS011;67937;52.488;20.952;2023-06-14T00:51:19;5.30;;;3.80;;
78614;SDS011;67937;52.488;20.952;2023-06-14T00:53:47;4.60;;;3.90;;
78614;SDS011;67937;52.488;20.952;2023-06-14T00:56:15;4.90;;;4.40;;
78614;SDS011;67937;52.488;20.952;2023-06-14T00:58:47;5.50;;;3.80;;
78614;SDS011;67937;52.488;20.952;2023-06-14T01:01:15;5.40;;;4.10;;
78614;SDS011;67937;52.488;20.952;2023-06-14T01:03:44;5.70;;;3.60;;
78614;SDS011;67937;52.488;20.952;2023-06-14T01:08:57;4.80;;;4.10;;
78614;SDS011;67937;52.488;20.952;2023-06-14T01:11:32;4.50;;;4.00;;
78614;SDS011;67937;52.488;20.952;2023-06-14T01:14:05;5.30;;;3.70;;
78614;SDS011;67937;52.488;20.952;2023-06-14T01:16:34;4.40;;;4.00;;
78614;SDS011;67937;52.488;20.952;2023-06-14T01:19:06;5.40;;;4.10;;
78614;SDS011;67937;52.488;20.952;2023-06-14T01:21:40;3.70;;;3.30;;
78614;SDS011;67937;52.488;20.952;2023-06-14T01:24:09;4.80;;;3.80;;
78614;SDS011;67937;52.488;20.952;2023-06-14T01:26:37;4.80;;;4.00;;
78614;SDS011;67937;52.488;20.952;2023-06-14T01:29:12;4.30;;;3.90;;
78614;SDS011;67937;52.488;20.952;2023-06-14T01:31:44;3.80;;;3.50;;
78614;SDS011;67937;52.488;20.952;2023-06-14T01:34:13;5.40;;;4.10;;
78614;SDS011;67937;52.488;20.952;2023-06-14T01:36:41;6.90;;;3.80;;
78614;SDS011;67937;52.488;20.952;2023-06-14T01:39:12;4.60;;;4.00;;
78614;SDS011;67937;52.488;20.952;2023-06-14T01:41:43;4.60;;;3.80;;
78614;SDS011;67937;52.488;20.952;2023-06-14T01:44:13;6.30;;;4.10;;
78614;SDS011;67937;52.488;20.952;2023-06-14T01:46:42;4.50;;;4.10;;
78614;SDS011;67937;52.488;20.952;2023-06-14T01:49:12;3.90;;;3.40;;
78614;SDS011;67937;52.488;20.952;2023-06-14T01:51:40;5.50;;;3.70;;
78614;SDS011;67937;52.488;20.952;2023-06-14T01:54:08;5.70;;;4.40;;
78614;SDS011;67937;52.488;20.952;2023-06-14T01:56:36;5.10;;;4.20;;
78614;SDS011;67937;52.488;20.952;2023-06-14T01:59:04;5.70;;;3.80;;
78614;SDS011;67937;52.488;20.952;2023-06-14T02:01:32;4.10;;;3.80;;
78614;SDS011;67937;52.488;20.952;2023-06-14T02:04:01;4.20;;;3.80;;
78614;SDS011;67937;52.488;20.952;2023-06-14T02:06:29;3.90;;;3.50;;
78614;SDS011;67937;52.488;20.952;2023-06-14T02:08:57;3.90;;;3.50;;
78614;SDS011;67937;52.488;20.952;2023-06-14T02:11:25;3.80;;;3.50;;
78614;SDS011;67937;52.488;20.952;2023-06-14T02:13:53;4.40;;;3.70;;
78614;SDS011;67937;52.488;20.952;2023-06-14T02:16:21;5.10;;;3.30;;
78614;SDS011;67937;52.488;20.952;2023-06-14T02:18:49;3.70;;;3.40;;
78614;SDS011;67937;52.488;20.952;2023-06-14T02:21:17;5.70;;;3.40;;
78614;SDS011;67937;52.488;20.952;2023-06-14T02:23:45;7.50;;;3.20;;
78614;SDS011;67937;52.488;20.952;2023-06-14T02:26:14;3.70;;;3.20;;
78614;SDS011;67937;52.488;20.952;2023-06-14T02:28:42;3.60;;;3.00;;
78614;SDS011;67937;52.488;20.952;2023-06-14T02:31:10;4.90;;;3.50;;
78614;SDS011;67937;52.488;20.952;2023-06-14T02:33:38;5.90;;;3.00;;
78614;SDS011;67937;52.488;20.952;2023-06-14T02:36:06;5.60;;;3.50;;
78614;SDS011;67937;52.488;20.952;2023-06-14T02:38:34;5.30;;;3.50;;
78614;SDS011;67937;52.488;20.952;2023-06-14T02:41:02;3.30;;;3.00;;
78614;SDS011;67937;52.488;20.952;2023-06-14T02:43:30;3.80;;;2.90;;
78614;SDS011;67937;52.488;20.952;2023-06-14T02:45:58;3.20;;;2.90;;
78614;SDS011;67937;52.488;20.952;2023-06-14T02:48:27;4.50;;;3.50;;
78614;SDS011;67937;52.488;20.952;2023-06-14T02:50:55;3.90;;;3.60;;
78614;SDS011;67937;52.488;20.952;2023-06-14T02:53:23;3.90;;;3.60;;
78614;SDS011;67937;52.488;20.952;2023-06-14T02:55:51;4.90;;;4.20;;
78614;SDS011;67937;52.488;20.952;2023-06-14T02:58:21;7.20;;;3.90;;
78614;SDS011;67937;52.488;20.952;2023-06-14T03:00:51;4.20;;;3.70;;
78614;SDS011;67937;52.488;20.952;2023-06-14T03:03:20;3.70;;;3.30;;
78614;SDS011;67937;52.488;20.952;2023-06-14T03:05:50;4.50;;;3.50;;
78614;SDS011;67937;52.488;20.952;2023-06-14T03:08:20;3.80;;;3.50;;
78614;SDS011;67937;52.488;20.952;2023-06-14T03:10:53;4.00;;;3.40;;
78614;SDS011;67937;52.488;20.952;2023-06-14T03:13:22;4.30;;;3.50;;
78614;SDS011;67937;52.488;20.952;2023-06-14T03:15:50;4.00;;;3.60;;
78614;SDS011;67937;52.488;20.952;2023-06-14T03:18:18;5.00;;;4.00;;
78614;SDS011;67937;52.488;20.952;2023-06-14T03:20:48;5.00;;;3.70;;
78614;SDS011;67937;52.488;20.952;2023-06-14T03:23:17;5.10;;;3.60;;
78614;SDS011;67937;52.488;20.952;2023-06-14T03:25:45;4.00;;;3.60;;
78614;SDS011;67937;52.488;20.952;2023-06-14T03:28:13;4.10;;;3.40;;
78614;SDS011;67937;52.488;20.952;2023-06-14T03:30:42;5.80;;;3.50;;
78614;SDS011;67937;52.488;20.952;2023-06-14T03:33:10;4.10;;;3.80;;
78614;SDS011;67937;52.488;20.952;2023-06-14T03:35:38;3.80;;;3.40;;
78614;SDS011;67937;52.488;20.952;2023-06-14T03:38:06;4.50;;;4.00;;
78614;SDS011;67937;52.488;20.952;2023-06-14T03:40:34;5.00;;;4.30;;
78614;SDS011;67937;52.488;20.952;2023-06-14T03:43:02;7.10;;;4.00;;
78614;SDS011;67937;52.488;20.952;2023-06-14T03:45:30;6.20;;;3.70;;
78614;SDS011;67937;52.488;20.952;2023-06-14T03:47:58;4.20;;;3.80;;
78614;SDS011;67937;52.488;20.952;2023-06-14T03:50:26;4.50;;;3.70;;
78614;SDS011;67937;52.488;20.952;2023-06-14T03:52:54;5.20;;;3.90;;
78614;SDS011;67937;52.488;20.952;2023-06-14T03:55:23;4.60;;;3.80;;
78614;SDS011;67937;52.488;20.952;2023-06-14T03:57:51;5.20;;;4.00;;
78614;SDS011;67937;52.488;20.952;2023-06-14T04:00:19;6.00;;;4.20;;
78614;SDS011;67937;52.488;20.952;2023-06-14T04:02:47;4.20;;;3.80;;
78614;SDS011;67937;52.488;20.952;2023-06-14T04:05:16;4.20;;;3.80;;
78614;SDS011;67937;52.488;20.952;2023-06-14T04:07:45;6.00;;;4.20;;
78614;SDS011;67937;52.488;20.952;2023-06-14T04:10:15;4.70;;;4.10;;
78614;SDS011;67937;52.488;20.952;2023-06-14T04:12:44;7.70;;;4.20;;
78614;SDS011;67937;52.488;20.952;2023-06-14T04:15:12;5.00;;;4.50;;
78614;SDS011;67937;52.488;20.952;2023-06-14T04:17:40;5.30;;;4.00;;
78614;SDS011;67937;52.488;20.952;2023-06-14T04:20:08;5.10;;;4.60;;
78614;SDS011;67937;52.488;20.952;2023-06-14T04:22:37;5.70;;;4.50;;
78614;SDS011;67937;52.488;20.952;2023-06-14T04:25:05;5.50;;;4.80;;
78614;SDS011;67937;52.488;20.952;2023-06-14T04:27:34;4.60;;;4.00;;
78614;SDS011;67937;52.488;20.952;2023-06-14T04:30:03;4.90;;;4.40;;
78614;SDS011;67937;52.488;20.952;2023-06-14T04:32:32;6.30;;;4.50;;
78614;SDS011;67937;52.488;20.952;2023-06-14T04:35:06;7.00;;;4.60;;
78614;SDS011;67937;52.488;20.952;2023-06-14T04:37:34;4.70;;;4.10;;
78614;SDS011;67937;52.488;20.952;2023-06-14T04:40:06;5.40;;;4.60;;
78614;SDS011;67937;52.488;20.952;2023-06-14T04:42:35;4.90;;;4.30;;
78614;SDS011;67937;52.488;20.952;2023-06-14T04:45:03;5.30;;;3.90;;
78614;SDS011;67937;52.488;20.952;2023-06-14T04:47:33;6.60;;;4.40;;
78614;SDS011;67937;52.488;20.952;2023-06-14T04:50:02;8.50;;;4.40;;
78614;SDS011;67937;52.488;20.952;2023-06-14T04:52:30;5.90;;;4.70;;
78614;SDS011;67937;52.488;20.952;2023-06-14T04:54:59;9.30;;;5.50;;
78614;SDS011;67937;52.488;20.952;2023-06-14T04:57:28;5.70;;;5.10;;
78614;SDS011;67937;52.488;20.952;2023-06-14T04:59:56;5.70;;;5.00;;
78614;SDS011;67937;52.488;20.952;2023-06-14T05:02:27;5.70;;;4.80;;
78614;SDS011;67937;52.488;20.952;2023-06-14T05:04:57;5.30;;;4.50;;
78614;SDS011;67937;52.488;20.952;2023-06-14T05:07:25;6.30;;;4.50;;
78614;SDS011;67937;52.488;20.952;2023-06-14T05:09:53;7.10;;;5.80;;
78614;SDS011;67937;52.488;20.952;2023-06-14T05:12:21;5.50;;;5.00;;
78614;SDS011;67937;52.488;20.952;2023-06-14T05:14:49;6.20;;;4.70;;
78614;SDS011;67937;52.488;20.952;2023-06-14T05:17:17;8.00;;;5.50;;
78614;SDS011;67937;52.488;20.952;2023-06-14T05:19:46;6.20;;;4.80;;
78614;SDS011;67937;52.488;20.952;2023-06-14T05:22:14;8.10;;;5.30;;
78614;SDS011;67937;52.488;20.952;2023-06-14T05:24:43;5.30;;;4.80;;
78614;SDS011;67937;52.488;20.952;2023-06-14T05:27:10;5.30;;;4.50;;
78614;SDS011;67937;52.488;20.952;2023-06-14T05:29:39;5.00;;;4.10;;
78614;SDS011;67937;52.488;20.952;2023-06-14T05:32:08;6.60;;;5.50;;
78614;SDS011;67937;52.488;20.952;2023-06-14T05:34:36;4.80;;;4.40;;
78614;SDS011;67937;52.488;20.952;2023-06-14T05:37:04;5.70;;;5.00;;
78614;SDS011;67937;52.488;20.952;2023-06-14T05:39:32;6.70;;;5.80;;
78614;SDS011;67937;52.488;20.952;2023-06-14T05:42:00;7.50;;;4.90;;
78614;SDS011;67937;52.488;20.952;2023-06-14T05:44:28;5.50;;;4.90;;
78614;SDS011;67937;52.488;20.952;2023-06-14T05:46:57;5.50;;;4.90;;
78614;SDS011;67937;52.488;20.952;2023-06-14T05:49:25;5.00;;;4.20;;
78614;SDS011;67937;52.488;20.952;2023-06-14T05:51:53;6.10;;;4.90;;
78614;SDS011;67937;52.488;20.952;2023-06-14T05:54:21;5.10;;;4.00;;
78614;SDS011;67937;52.488;20.952;2023-06-14T05:56:49;6.90;;;4.40;;
78614;SDS011;67937;52.488;20.952;2023-06-14T05:59:17;5.90;;;5.00;;
78614;SDS011;67937;52.488;20.952;2023-06-14T06:01:45;4.90;;;4.40;;
78614;SDS011;67937;52.488;20.952;2023-06-14T06:04:13;4.40;;;4.00;;
78614;SDS011;67937;52.488;20.952;2023-06-14T06:06:41;6.40;;;5.20;;
78614;SDS011;67937;52.488;20.952;2023-06-14T06:09:09;7.00;;;4.40;;
78614;SDS011;67937;52.488;20.952;2023-06-14T06:11:37;6.10;;;4.70;;
78614;SDS011;67937;52.488;20.952;2023-06-14T06:14:05;4.80;;;4.40;;
78614;SDS011;67937;52.488;20.952;2023-06-14T06:16:33;6.10;;;4.00;;
78614;SDS011;67937;52.488;20.952;2023-06-14T06:19:01;5.00;;;4.00;;
78614;SDS011;67937;52.488;20.952;2023-06-14T06:21:30;4.90;;;4.40;;
78614;SDS011;67937;52.488;20.952;2023-06-14T06:23:58;5.00;;;4.50;;
78614;SDS011;67937;52.488;20.952;2023-06-14T06:26:29;5.60;;;4.60;;
78614;SDS011;67937;52.488;20.952;2023-06-14T06:28:58;7.40;;;5.50;;
78614;SDS011;67937;52.488;20.952;2023-06-14T06:31:26;5.00;;;4.40;;
78614;SDS011;67937;52.488;20.952;2023-06-14T06:33:54;6.10;;;4.60;;
78614;SDS011;67937;52.488;20.952;2023-06-14T06:36:22;4.90;;;4.40;;
78614;SDS011;67937;52.488;20.952;2023-06-14T06:38:51;6.60;;;5.40;;
78614;SDS011;67937;52.488;20.952;2023-06-14T06:41:19;5.40;;;4.90;;
78614;SDS011;67937;52.488;20.952;2023-06-14T06:43:47;4.90;;;4.50;;
78614;SDS011;67937;52.488;20.952;2023-06-14T06:46:15;9.50;;;5.60;;
78614;SDS011;67937;52.488;20.952;2023-06-14T06:48:44;9.60;;;4.40;;
78614;SDS011;67937;52.488;20.952;2023-06-14T06:51:12;7.30;;;5.50;;
78614;SDS011;67937;52.488;20.952;2023-06-14T06:53:41;5.30;;;4.80;;
78614;SDS011;67937;52.488;20.952;2023-06-14T06:56:10;7.30;;;4.90;;
78614;SDS011;67937;52.488;20.952;2023-06-14T06:58:38;6.10;;;5.40;;
78614;SDS011;67937;52.488;20.952;2023-06-14T07:01:06;7.20;;;5.20;;
78614;SDS011;67937;52.488;20.952;2023-06-14T07:03:35;6.60;;;4.80;;
78614;SDS011;67937;52.488;20.952;2023-06-14T07:06:03;7.50;;;5.50;;
78614;SDS011;67937;52.488;20.952;2023-06-14T07:08:31;6.10;;;5.00;;
78614;SDS011;67937;52.488;20.952;2023-06-14T07:11:00;9.80;;;6.40;;
78614;SDS011;67937;52.488;20.952;2023-06-14T07:13:28;7.10;;;5.20;;
78614;SDS011;67937;52.488;20.952;2023-06-14T07:16:00;8.10;;;6.80;;
78614;SDS011;67937;52.488;20.952;2023-06-14T07:18:28;8.30;;;5.80;;
78614;SDS011;67937;52.488;20.952;2023-06-14T07:20:57;11.80;;;6.40;;
78614;SDS011;67937;52.488;20.952;2023-06-14T07:23:25;10.80;;;6.20;;
78614;SDS011;67937;52.488;20.952;2023-06-14T07:25:53;7.30;;;5.90;;
78614;SDS011;67937;52.488;20.952;2023-06-14T07:28:21;6.90;;;5.80;;
78614;SDS011;67937;52.488;20.952;2023-06-14T07:30:49;5.90;;;5.00;;
78614;SDS011;67937;52.488;20.952;2023-06-14T07:33:17;9.90;;;5.30;;
78614;SDS011;67937;52.488;20.952;2023-06-14T07:35:45;6.70;;;5.20;;
78614;SDS011;67937;52.488;20.952;2023-06-14T07:38:14;9.00;;;6.30;;
78614;SDS011;67937;52.488;20.952;2023-06-14T07:40:42;16.20;;;7.20;;
78614;SDS011;67937;52.488;20.952;2023-06-14T07:43:10;5.50;;;5.00;;
78614;SDS011;67937;52.488;20.952;2023-06-14T07:45:38;7.20;;;6.30;;
78614;SDS011;67937;52.488;20.952;2023-06-14T07:48:07;8.70;;;6.20;;
78614;SDS011;67937;52.488;20.952;2023-06-14T07:50:35;6.40;;;5.90;;
78614;SDS011;67937;52.488;20.952;2023-06-14T07:53:03;6.60;;;5.70;;
78614;SDS011;67937;52.488;20.952;2023-06-14T07:55:31;8.60;;;5.10;;
78614;SDS011;67937;52.488;20.952;2023-06-14T07:58:03;7.50;;;5.80;;
78614;SDS011;67937;52.488;20.952;2023-06-14T08:00:31;6.80;;;5.70;;
78614;SDS011;67937;52.488;20.952;2023-06-14T08:03:00;6.70;;;6.10;;
78614;SDS011;67937;52.488;20.952;2023-06-14T08:05:28;9.90;;;6.00;;
78614;SDS011;67937;52.488;20.952;2023-06-14T08:07:56;7.90;;;5.30;;
78614;SDS011;67937;52.488;20.952;2023-06-14T08:10:25;7.20;;;5.40;;
78614;SDS011;67937;52.488;20.952;2023-06-14T08:12:53;6.40;;;5.60;;
78614;SDS011;67937;52.488;20.952;2023-06-14T08:15:21;7.90;;;5.60;;
78614;SDS011;67937;52.488;20.952;2023-06-14T08:17:49;5.30;;;4.80;;
78614;SDS011;67937;52.488;20.952;2023-06-14T08:20:18;5.80;;;5.00;;
78614;SDS011;67937;52.488;20.952;2023-06-14T08:22:46;6.40;;;4.30;;
78614;SDS011;67937;52.488;20.952;2023-06-14T08:25:14;8.00;;;4.70;;
78614;SDS011;67937;52.488;20.952;2023-06-14T08:27:43;5.50;;;5.00;;
78614;SDS011;67937;52.488;20.952;2023-06-14T08:30:11;5.80;;;4.50;;
78614;SDS011;67937;52.488;20.952;2023-06-14T08:32:40;6.20;;;4.70;;
78614;SDS011;67937;52.488;20.952;2023-06-14T08:35:08;7.00;;;5.00;;
78614;SDS011;67937;52.488;20.952;2023-06-14T08:37:42;6.60;;;4.60;;
78614;SDS011;67937;52.488;20.952;2023-06-14T08:40:20;6.50;;;5.10;;
78614;SDS011;67937;52.488;20.952;2023-06-14T08:42:50;5.70;;;4.80;;
78614;SDS011;67937;52.488;20.952;2023-06-14T08:45:20;6.00;;;5.40;;
78614;SDS011;67937;52.488;20.952;2023-06-14T08:47:49;7.50;;;4.40;;
78614;SDS011;67937;52.488;20.952;2023-06-14T08:50:21;5.70;;;5.10;;
78614;SDS011;67937;52.488;20.952;2023-06-14T08:52:53;7.70;;;5.50;;
78614;SDS011;67937;52.488;20.952;2023-06-14T08:55:23;8.20;;;5.70;;
78614;SDS011;67937;52.488;20.952;2023-06-14T08:57:54;6.70;;;5.20;;
78614;SDS011;67937;52.488;20.952;2023-06-14T09:00:24;6.90;;;5.90;;
78614;SDS011;67937;52.488;20.952;2023-06-14T09:02:53;8.90;;;5.10;;
78614;SDS011;67937;52.488;20.952;2023-06-14T09:05:24;6.20;;;5.60;;
78614;SDS011;67937;52.488;20.952;2023-06-14T09:07:53;7.40;;;5.30;;
78614;SDS011;67937;52.488;20.952;2023-06-14T09:10:23;5.20;;;4.50;;
78614;SDS011;67937;52.488;20.952;2023-06-14T09:12:52;6.80;;;5.00;;
78614;SDS011;67937;52.488;20.952;2023-06-14T09:15:21;5.40;;;4.90;;
78614;SDS011;67937;52.488;20.952;2023-06-14T09:17:49;6.30;;;5.60;;
78614;SDS011;67937;52.488;20.952;2023-06-14T09:20:17;7.20;;;6.50;;
78614;SDS011;67937;52.488;20.952;2023-06-14T09:22:46;7.60;;;6.20;;
78614;SDS011;67937;52.488;20.952;2023-06-14T09:25:14;7.50;;;5.50;;
78614;SDS011;67937;52.488;20.952;2023-06-14T09:27:42;6.80;;;5.80;;
78614;SDS011;67937;52.488;20.952;2023-06-14T09:30:10;6.30;;;5.40;;
78614;SDS011;67937;52.488;20.952;2023-06-14T09:32:39;8.90;;;6.00;;
78614;SDS011;67937;52.488;20.952;2023-06-14T09:35:08;7.00;;;6.40;;
78614;SDS011;67937;52.488;20.952;2023-06-14T09:37:36;8.50;;;7.40;;
78614;SDS011;67937;52.488;20.952;2023-06-14T09:40:05;9.00;;;6.50;;
78614;SDS011;67937;52.488;20.952;2023-06-14T09:42:34;8.90;;;7.00;;
78614;SDS011;67937;52.488;20.952;2023-06-14T09:45:03;8.80;;;8.00;;
78614;SDS011;67937;52.488;20.952;2023-06-14T09:47:32;8.10;;;6.80;;
78614;SDS011;67937;52.488;20.952;2023-06-14T09:50:00;12.30;;;7.10;;
78614;SDS011;67937;52.488;20.952;2023-06-14T09:52:28;9.00;;;7.60;;
78614;SDS011;67937;52.488;20.952;2023-06-14T09:54:58;8.70;;;7.80;;
78614;SDS011;67937;52.488;20.952;2023-06-14T09:57:27;10.20;;;7.20;;
78614;SDS011;67937;52.488;20.952;2023-06-14T09:59:59;6.80;;;6.10;;
78614;SDS011;67937;52.488;20.952;2023-06-14T10:02:37;6.90;;;5.90;;
78614;SDS011;67937;52.488;20.952;2023-06-14T10:05:09;6.70;;;5.90;;
78614;SDS011;67937;52.488;20.952;2023-06-14T10:10:35;6.40;;;4.90;;
78614;SDS011;67937;52.488;20.952;2023-06-14T10:13:06;7.20;;;5.60;;
78614;SDS011;67937;52.488;20.952;2023-06-14T10:15:41;6.20;;;5.60;;
78614;SDS011;67937;52.488;20.952;2023-06-14T10:18:17;5.90;;;5.30;;
78614;SDS011;67937;52.488;20.952;2023-06-14T10:21:13;6.50;;;5.50;;
78614;SDS011;67937;52.488;20.952;2023-06-14T10:23:49;6.70;;;5.50;;
78614;SDS011;67937;52.488;20.952;2023-06-14T10:26:22;6.30;;;5.40;;
78614;SDS011;67937;52.488;20.952;2023-06-14T10:29:09;7.90;;;6.20;;
78614;SDS011;67937;52.488;20.952;2023-06-14T10:31:44;6.70;;;6.10;;
78614;SDS011;67937;52.488;20.952;2023-06-14T10:34:20;8.40;;;6.00;;
78614;SDS011;67937;52.488;20.952;2023-06-14T10:39:31;10.40;;;6.50;;
78614;SDS011;67937;52.488;20.952;2023-06-14T10:42:04;7.40;;;5.70;;
78614;SDS011;67937;52.488;20.952;2023-06-14T10:44:34;7.50;;;5.80;;
78614;SDS011;67937;52.488;20.952;2023-06-14T10:47:24;6.80;;;5.40;;
78614;SDS011;67937;52.488;20.952;2023-06-14T10:49:55;6.30;;;5.70;;
78614;SDS011;67937;52.488;20.952;2023-06-14T10:52:25;7.60;;;5.10;;
78614;SDS011;67937;52.488;20.952;2023-06-14T10:57:36;8.10;;;4.80;;
78614;SDS011;67937;52.488;20.952;2023-06-14T11:00:06;6.00;;;4.70;;
78614;SDS011;67937;52.488;20.952;2023-06-14T11:02:52;4.40;;;3.90;;
78614;SDS011;67937;52.488;20.952;2023-06-14T11:05:27;5.60;;;4.20;;
78614;SDS011;67937;52.488;20.952;2023-06-14T11:10:45;7.70;;;4.50;;
78614;SDS011;67937;52.488;20.952;2023-06-14T11:13:14;4.60;;;4.20;;
78614;SDS011;67937;52.488;20.952;2023-06-14T11:15:44;4.60;;;4.20;;
78614;SDS011;67937;52.488;20.952;2023-06-14T11:18:13;6.10;;;5.50;;
78614;SDS011;67937;52.488;20.952;2023-06-14T11:20:45;5.50;;;4.60;;
78614;SDS011;67937;52.488;20.952;2023-06-14T11:23:14;8.40;;;5.70;;
78614;SDS011;67937;52.488;20.952;2023-06-14T11:25:42;6.40;;;5.10;;
78614;SDS011;67937;52.488;20.952;2023-06-14T11:28:10;6.80;;;4.90;;
78614;SDS011;67937;52.488;20.952;2023-06-14T11:30:38;7.30;;;4.90;;
78614;SDS011;67937;52.488;20.952;2023-06-14T11:33:09;7.70;;;5.10;;
78614;SDS011;67937;52.488;20.952;2023-06-14T11:35:38;7.20;;;4.80;;
78614;SDS011;67937;52.488;20.952;2023-06-14T11:38:06;6.90;;;4.60;;
78614;SDS011;67937;52.488;20.952;2023-06-14T11:40:35;6.80;;;4.40;;
78614;SDS011;67937;52.488;20.952;2023-06-14T11:43:06;6.20;;;5.10;;
78614;SDS011;67937;52.488;20.952;2023-06-14T11:45:34;7.10;;;5.00;;
78614;SDS011;67937;52.488;20.952;2023-06-14T11:48:03;5.30;;;4.80;;
78614;SDS011;67937;52.488;20.952;2023-06-14T11:50:31;4.90;;;4.40;;
78614;SDS011;67937;52.488;20.952;2023-06-14T11:53:00;5.20;;;4.10;;
78614;SDS011;67937;52.488;20.952;2023-06-14T11:55:36;4.70;;;4.20;;
78614;SDS011;67937;52.488;20.952;2023-06-14T11:58:06;5.90;;;4.30;;
78614;SDS011;67937;52.488;20.952;2023-06-14T12:00:35;5.80;;;4.40;;
78614;SDS011;67937;52.488;20.952;2023-06-14T12:03:04;6.00;;;4.80;;
78614;SDS011;67937;52.488;20.952;2023-06-14T12:05:32;5.60;;;4.90;;
78614;SDS011;67937;52.488;20.952;2023-06-14T12:08:02;5.40;;;4.70;;
78614;SDS011;67937;52.488;20.952;2023-06-14T12:10:39;5.90;;;4.50;;
78614;SDS011;67937;52.488;20.952;2023-06-14T12:13:10;4.80;;;4.40;;
78614;SDS011;67937;52.488;20.952;2023-06-14T12:15:38;5.80;;;4.70;;
78614;SDS011;67937;52.488;20.952;2023-06-14T12:18:07;4.90;;;4.00;;
78614;SDS011;67937;52.488;20.952;2023-06-14T12:20:35;4.70;;;4.30;;
78614;SDS011;67937;52.488;20.952;2023-06-14T12:23:04;5.80;;;4.90;;
78614;SDS011;67937;52.488;20.952;2023-06-14T12:25:33;5.30;;;4.70;;
78614;SDS011;67937;52.488;20.952;2023-06-14T12:30:35;6.40;;;5.10;;
78614;SDS011;67937;52.488;20.952;2023-06-14T12:33:05;5.90;;;4.80;;
78614;SDS011;67937;52.488;20.952;2023-06-14T12:35:34;8.30;;;5.20;;
78614;SDS011;67937;52.488;20.952;2023-06-14T12:38:02;5.30;;;4.80;;
78614;SDS011;67937;52.488;20.952;2023-06-14T12:40:30;6.20;;;5.00;;
78614;SDS011;67937;52.488;20.952;2023-06-14T12:42:59;7.40;;;5.30;;
78614;SDS011;67937;52.488;20.952;2023-06-14T12:45:27;7.50;;;5.00;;
78614;SDS011;67937;52.488;20.952;2023-06-14T12:47:55;6.20;;;5.20;;
78614;SDS011;67937;52.488;20.952;2023-06-14T12:50:23;5.90;;;5.30;;
78614;SDS011;67937;52.488;20.952;2023-06-14T12:52:51;7.90;;;4.60;;
78614;SDS011;67937;52.488;20.952;2023-06-14T12:55:20;5.90;;;4.90;;
78614;SDS011;67937;52.488;20.952;2023-06-14T12:57:48;5.60;;;4.60;;
78614;SDS011;67937;52.488;20.952;2023-06-14T13:00:18;5.40;;;4.20;;
78614;SDS011;67937;52.488;20.952;2023-06-14T13:02:48;5.30;;;4.10;;
78614;SDS011;67937;52.488;20.952;2023-06-14T13:05:17;4.90;;;3.80;;
78614;SDS011;67937;52.488;20.952;2023-06-14T13:07:45;4.80;;;4.20;;
78614;SDS011;67937;52.488;20.952;2023-06-14T13:10:13;4.00;;;3.60;;
78614;SDS011;67937;52.488;20.952;2023-06-14T13:12:41;4.10;;;3.60;;
78614;SDS011;67937;52.488;20.952;2023-06-14T13:15:10;7.60;;;3.80;;
78614;SDS011;67937;52.488;20.952;2023-06-14T13:17:38;4.50;;;4.10;;
78614;SDS011;67937;52.488;20.952;2023-06-14T13:20:08;4.40;;;4.00;;
78614;SDS011;67937;52.488;20.952;2023-06-14T13:22:37;4.70;;;4.10;;
78614;SDS011;67937;52.488;20.952;2023-06-14T13:25:06;4.70;;;4.30;;
78614;SDS011;67937;52.488;20.952;2023-06-14T13:27:34;5.30;;;4.20;;
78614;SDS011;67937;52.488;20.952;2023-06-14T13:30:03;4.90;;;4.40;;
78614;SDS011;67937;52.488;20.952;2023-06-14T13:32:32;5.60;;;5.00;;
78614;SDS011;67937;52.488;20.952;2023-06-14T13:35:00;7.40;;;4.60;;
78614;SDS011;67937;52.488;20.952;2023-06-14T13:37:29;4.80;;;4.30;;
78614;SDS011;67937;52.488;20.952;2023-06-14T13:39:57;3.90;;;3.50;;
78614;SDS011;67937;52.488;20.952;2023-06-14T13:42:25;3.90;;;3.30;;
78614;SDS011;67937;52.488;20.952;2023-06-14T13:44:53;3.40;;;3.10;;
78614;SDS011;67937;52.488;20.952;2023-06-14T13:47:21;4.40;;;3.30;;
78614;SDS011;67937;52.488;20.952;2023-06-14T13:49:49;3.00;;;2.80;;
78614;SDS011;67937;52.488;20.952;2023-06-14T13:52:17;4.20;;;3.50;;
78614;SDS011;67937;52.488;20.952;2023-06-14T13:54:45;3.20;;;2.90;;
78614;SDS011;67937;52.488;20.952;2023-06-14T13:57:14;2.70;;;2.50;;
78614;SDS011;67937;52.488;20.952;2023-06-14T13:59:42;3.90;;;2.70;;
78614;SDS011;67937;52.488;20.952;2023-06-14T14:02:12;3.70;;;2.60;;
78614;SDS011;67937;52.488;20.952;2023-06-14T14:04:40;3.70;;;2.80;;
78614;SDS011;67937;52.488;20.952;2023-06-14T14:07:09;3.40;;;2.80;;
78614;SDS011;67937;52.488;20.952;2023-06-14T14:09:37;4.10;;;2.80;;
78614;SDS011;67937;52.488;20.952;2023-06-14T14:12:05;2.30;;;2.10;;
78614;SDS011;67937;52.488;20.952;2023-06-14T14:14:34;3.90;;;2.20;;
78614;SDS011;67937;52.488;20.952;2023-06-14T14:17:03;4.90;;;2.50;;
78614;SDS011;67937;52.488;20.952;2023-06-14T14:19:31;2.60;;;2.40;;
78614;SDS011;67937;52.488;20.952;2023-06-14T14:21:59;3.70;;;3.10;;
78614;SDS011;67937;52.488;20.952;2023-06-14T14:24:27;3.60;;;2.80;;
78614;SDS011;67937;52.488;20.952;2023-06-14T14:26:55;4.30;;;2.80;;
78614;SDS011;67937;52.488;20.952;2023-06-14T14:29:27;2.70;;;2.50;;
78614;SDS011;67937;52.488;20.952;2023-06-14T14:31:56;2.90;;;2.60;;
78614;SDS011;67937;52.488;20.952;2023-06-14T14:34:24;3.20;;;2.40;;
78614;SDS011;67937;52.488;20.952;2023-06-14T14:36:53;4.60;;;2.60;;
78614;SDS011;67937;52.488;20.952;2023-06-14T14:39:21;3.00;;;2.40;;
78614;SDS011;67937;52.488;20.952;2023-06-14T14:41:49;4.60;;;2.20;;
78614;SDS011;67937;52.488;20.952;2023-06-14T14:44:18;4.20;;;2.90;;
78614;SDS011;67937;52.488;20.952;2023-06-14T14:46:46;4.20;;;2.40;;
78614;SDS011;67937;52.488;20.952;2023-06-14T14:49:14;2.60;;;2.20;;
78614;SDS011;67937;52.488;20.952;2023-06-14T14:51:42;2.30;;;2.20;;
78614;SDS011;67937;52.488;20.952;2023-06-14T14:54:10;2.80;;;2.60;;
78614;SDS011;67937;52.488;20.952;2023-06-14T14:56:38;4.30;;;2.50;;
78614;SDS011;67937;52.488;20.952;2023-06-14T14:59:07;3.20;;;2.40;;
78614;SDS011;67937;52.488;20.952;2023-06-14T15:01:35;3.20;;;2.40;;